Timonium, MD

8:54 PM EST on November 26, 2014 (GMT -0500)
KMDTIMON1 | Change Station
CLOSE
Current Station
Personal Weather Station
Location: Timonium, MD
Elevation: 360 ft
Nearby Weather Stations

Elev 360 ft 39.43 °N, 76.63 °W | Updated 4 minutes ago

Overcast
Overcast
35.1 °F
Feels Like 30 °F
N
6.0
Wind Variable Wind from North
Gusts 14.0 mph

Today
High -- | Low -- °F
--% Chance of Precip.
Yesterday
High -- | Low -- °F
Precip. -- in
7:02 AM 4:45 PM
Waxing Crescent, 24% visible
Pressure 29.93 in
Visibility 10.0 miles
Clouds Overcast 8000 ft
Windchill 30 °F
Dew Point 33 °F
Humidity 92%
Rainfall 0.60 in
Snow Depth Not available.
UV 0 out of 12
Pollen .10 out of 12
Air Quality Not available.
Flu Activity Not available.
METAR KMTN 270054Z 32009KT 10SM OVC080 03/02 A2993

More Conditions Fewer Conditions

Pressure 29.93 in
Visibility 10.0 miles
Clouds Overcast 8000 ft
Windchill 30 °F
Dew Point 33 °F
Humidity 92%
Rainfall 0.60 in
Snow Depth Not available.
UV 0 out of 12
Pollen .10 out of 12
Air Quality Not available.
Flu Activity Not available.
METAR KMTN 270054Z 32009KT 10SM OVC080 03/02 A2993

More Conditions Fewer Conditions

10-Day Weather Forecast

Almanac

Astronomy

Nov. 26, 2014 Rise Set
Actual Time
Civil Twilight
Nautical Twilight
Astronomical Twilight
Moon
Length of Visible Light
Length of Day
Tomorrow will be .
, % of the Moon is Illuminated

Today's Extremes

State Highs State Lows

Community

WunderPhotos

Upload Photos

1,773,940 photos uploaded!

WunderBlogs® & News

Nearby

Air Quality

  Air Quality AQ Index Pollutant
Not available.

Snow Depth

Station Depth Elevation

Earthquake Activity

City Distance Mag. Time & Date
Minimum magnitude displayed is 2.5.

Coastal Water Temperatures

Place Temperature

Nearby Weather Stations